Time;durP1;ratioP1;P1;durP2;ratioP2;P2;SDS_P1;SDS_P2;PMS_P1;PMS_P2;Temp;Humidity;BMP_temperature;BMP_pressure;BME280_temperature;BME280_humidity;BME280_pressure;Samples;Min_cycle;Max_cycle;Signal;HPM_P1;HPM_P2
2023/10/16 00:00:49;;;;;;;1.50;0.90;;;16.90;44.10;;;;;;5127650;27;45232;-71
2023/10/16 00:03:17;;;;;;;2.38;1.05;;;16.90;43.40;;;;;;5127966;27;45249;-72
2023/10/16 00:05:50;;;;;;;1.63;1.00;;;16.90;43.40;;;;;;5127415;27;45455;-72
2023/10/16 00:08:17;;;;;;;0.88;0.88;;;16.90;43.50;;;;;;5127782;27;45168;-72
2023/10/16 00:10:44;;;;;;;2.03;1.30;;;16.90;43.50;;;;;;5130326;27;45294;-72
2023/10/16 00:13:11;;;;;;;2.22;1.00;;;16.80;43.40;;;;;;5131270;27;45311;-72
2023/10/16 00:15:41;;;;;;;2.28;1.00;;;16.80;43.50;;;;;;5129810;27;46383;-71
2023/10/16 00:18:13;;;;;;;1.38;0.90;;;16.80;43.50;;;;;;5130577;27;45210;-71
2023/10/16 00:20:42;;;;;;;0.80;0.80;;;16.80;43.50;;;;;;5130890;27;45322;-71
2023/10/16 00:23:11;;;;;;;1.45;1.05;;;16.80;43.50;;;;;;5131018;27;45323;-72
2023/10/16 00:25:39;;;;;;;0.95;0.93;;;16.80;43.50;;;;;;5130269;27;46384;-71
2023/10/16 00:28:07;;;;;;;1.08;0.98;;;16.80;43.50;;;;;;5130536;27;45167;-71
2023/10/16 00:30:34;;;;;;;0.98;0.90;;;16.80;43.50;;;;;;5130788;27;45293;-71
2023/10/16 00:33:01;;;;;;;1.45;1.02;;;16.70;43.50;;;;;;5130467;27;45483;-71
2023/10/16 00:35:28;;;;;;;1.10;1.00;;;16.70;43.40;;;;;;5130293;27;46386;-72
2023/10/16 00:37:57;;;;;;;0.90;0.90;;;16.70;43.40;;;;;;5130501;27;45306;-72
2023/10/16 00:40:36;;;;;;;1.10;1.00;;;16.70;43.40;;;;;;5130565;27;45292;-71
2023/10/16 00:43:10;;;;;;;1.20;0.90;;;16.70;43.50;;;;;;5130659;27;45410;-72
2023/10/16 00:45:45;;;;;;;2.22;0.95;;;16.60;43.40;;;;;;5130011;27;46637;-71
2023/10/16 00:48:13;;;;;;;2.75;1.00;;;16.60;43.50;;;;;;5130279;27;45379;-72
2023/10/16 00:50:40;;;;;;;0.80;0.70;;;16.60;43.50;;;;;;5130386;27;45321;-72
2023/10/16 00:53:07;;;;;;;1.10;0.50;;;16.60;43.40;;;;;;5130662;27;45306;-71
2023/10/16 00:55:36;;;;;;;1.00;0.75;;;16.60;43.50;;;;;;5129874;27;45434;-71
2023/10/16 00:58:06;;;;;;;0.65;0.65;;;16.60;43.40;;;;;;5130116;27;45278;-72
2023/10/16 01:00:35;;;;;;;0.73;0.60;;;16.60;43.40;;;;;;5130228;27;45352;-71
2023/10/16 01:03:05;;;;;;;0.88;0.88;;;16.60;43.50;;;;;;5130338;27;45389;-72
2023/10/16 01:05:33;;;;;;;1.17;0.98;;;16.60;43.40;;;;;;5129986;27;46580;-71
2023/10/16 01:08:01;;;;;;;1.05;0.85;;;16.50;43.40;;;;;;5130085;27;45467;-72
2023/10/16 01:10:28;;;;;;;1.67;0.82;;;16.50;44.00;;;;;;5130168;27;45318;-72
2023/10/16 01:12:56;;;;;;;1.33;0.95;;;16.50;43.50;;;;;;5130115;27;45344;-71
2023/10/16 01:15:23;;;;;;;1.10;0.80;;;16.50;43.40;;;;;;5128990;27;46782;-71
2023/10/16 01:17:51;;;;;;;0.60;0.60;;;16.50;43.50;;;;;;5129863;27;45294;-72
2023/10/16 01:20:19;;;;;;;0.80;0.80;;;16.50;43.50;;;;;;5129703;27;45322;-70
2023/10/16 01:22:47;;;;;;;1.60;0.90;;;16.50;43.50;;;;;;5130040;27;45327;-70
2023/10/16 01:25:17;;;;;;;1.40;0.80;;;16.40;43.40;;;;;;5129666;27;46686;-71
2023/10/16 01:27:44;;;;;;;0.75;0.70;;;16.40;43.50;;;;;;5129690;27;45375;-71
2023/10/16 01:30:12;;;;;;;2.22;1.00;;;16.40;43.50;;;;;;5129848;27;45317;-71
2023/10/16 01:32:39;;;;;;;1.25;0.85;;;16.40;43.50;;;;;;5129516;27;45495;-70
2023/10/16 01:35:08;;;;;;;1.20;0.65;;;16.40;43.50;;;;;;5129201;27;45299;-71
2023/10/16 01:37:38;;;;;;;1.70;0.80;;;16.40;43.50;;;;;;5129470;27;45269;-71
2023/10/16 01:42:53;;;;;;;1.10;0.88;;;16.40;43.50;;;;;;5129582;27;45507;-71
2023/10/16 01:45:21;;;;;;;1.00;0.77;;;16.30;43.40;;;;;;5129233;27;46367;-70
2023/10/16 01:47:48;;;;;;;1.40;0.88;;;16.30;43.40;;;;;;5129243;27;45213;-71
2023/10/16 01:50:20;;;;;;;2.88;0.80;;;16.30;43.50;;;;;;5129311;27;45232;-71
2023/10/16 01:52:48;;;;;;;1.05;0.77;;;16.30;43.50;;;;;;5129487;27;45167;-71
2023/10/16 01:55:17;;;;;;;1.15;0.80;;;16.30;43.50;;;;;;5129185;27;45658;-71
2023/10/16 01:57:47;;;;;;;1.38;0.90;;;16.30;43.50;;;;;;5129350;27;45314;-72
2023/10/16 02:00:18;;;;;;;1.20;0.80;;;16.30;43.50;;;;;;5129350;27;45334;-72
2023/10/16 02:02:45;;;;;;;0.73;0.65;;;16.20;43.50;;;;;;5129437;27;45405;-72
2023/10/16 02:05:13;;;;;;;1.33;0.88;;;16.20;43.50;;;;;;5128924;27;46319;-72
2023/10/16 02:07:43;;;;;;;1.00;0.88;;;16.20;43.50;;;;;;5128907;27;45396;-72
2023/10/16 02:10:13;;;;;;;1.35;1.00;;;16.20;43.60;;;;;;5128996;27;45300;-71
2023/10/16 02:12:40;;;;;;;0.88;0.88;;;16.20;43.60;;;;;;5128548;27;45303;-72
2023/10/16 02:15:08;;;;;;;1.08;0.93;;;16.20;43.50;;;;;;5128238;27;45443;-71
2023/10/16 02:17:38;;;;;;;0.75;0.63;;;16.20;43.60;;;;;;5128971;27;45347;-72
2023/10/16 02:20:11;;;;;;;1.00;0.90;;;16.20;43.60;;;;;;5128937;27;45318;-71
2023/10/16 02:22:39;;;;;;;1.05;0.70;;;16.10;43.60;;;;;;5129105;27;45242;-72
2023/10/16 02:25:10;;;;;;;1.70;0.90;;;16.10;43.60;;;;;;5128529;27;47602;-71
2023/10/16 02:27:37;;;;;;;1.38;0.85;;;16.10;43.50;;;;;;5128598;27;45216;-72
2023/10/16 02:30:15;;;;;;;2.28;0.80;;;16.10;43.60;;;;;;5128709;27;45253;-71
2023/10/16 02:32:44;;;;;;;1.42;0.90;;;16.10;43.60;;;;;;5127987;27;45449;-71
2023/10/16 02:35:13;;;;;;;0.70;0.70;;;16.10;43.60;;;;;;5128252;27;45314;-71
2023/10/16 02:37:40;;;;;;;0.77;0.77;;;16.10;43.70;;;;;;5128534;27;45393;-72
2023/10/16 02:40:11;;;;;;;0.80;0.80;;;16.00;43.60;;;;;;5128838;27;45281;-72
2023/10/16 02:42:41;;;;;;;0.95;0.77;;;16.00;43.60;;;;;;5128893;27;45161;-71
2023/10/16 02:45:23;;;;;;;0.77;0.77;;;16.00;43.70;;;;;;5128346;27;46821;-72
2023/10/16 02:47:52;;;;;;;1.20;0.70;;;16.00;43.70;;;;;;5128364;27;45296;-72
2023/10/16 02:50:19;;;;;;;0.98;0.90;;;16.00;43.60;;;;;;5128451;27;45446;-72
2023/10/16 02:52:47;;;;;;;0.80;0.70;;;16.00;43.70;;;;;;5128640;27;45521;-71
2023/10/16 02:55:14;;;;;;;0.65;0.65;;;16.00;43.70;;;;;;5128051;27;46518;-71
2023/10/16 02:57:41;;;;;;;0.85;0.80;;;15.90;43.70;;;;;;5128340;27;45311;-72
2023/10/16 03:00:17;;;;;;;1.17;0.90;;;15.90;43.70;;;;;;5128207;27;45401;-71
2023/10/16 03:02:47;;;;;;;1.05;0.95;;;15.90;43.70;;;;;;5128733;27;45286;-71
2023/10/16 03:05:23;;;;;;;0.70;0.70;;;15.90;43.70;;;;;;5127861;27;45443;-72
2023/10/16 03:07:50;;;;;;;1.15;0.70;;;15.90;43.80;;;;;;5128186;27;45301;-71
2023/10/16 03:10:17;;;;;;;1.33;0.77;;;15.90;43.70;;;;;;5128336;27;45529;-72
2023/10/16 03:12:44;;;;;;;2.55;0.90;;;15.90;43.70;;;;;;5128286;27;45376;-71
2023/10/16 03:15:20;;;;;;;1.05;0.80;;;15.80;43.60;;;;;;5127787;27;46385;-71
2023/10/16 03:17:50;;;;;;;1.75;0.70;;;15.80;43.70;;;;;;5128023;27;45220;-72
2023/10/16 03:20:22;;;;;;;0.80;0.80;;;15.80;44.20;;;;;;5127654;27;45393;-72
2023/10/16 03:22:50;;;;;;;0.93;0.70;;;15.80;43.70;;;;;;5127586;27;45251;-72
2023/10/16 03:25:50;;;;;;;1.15;0.90;;;15.80;43.70;;;;;;5129877;27;45407;-71
2023/10/16 03:28:13;;;;;;;0.75;0.70;;;15.80;43.70;;;;;;5127675;27;45386;-71
2023/10/16 03:30:42;;;;;;;1.13;0.90;;;15.80;43.70;;;;;;5127577;27;45279;-71
2023/10/16 03:33:14;;;;;;;0.68;0.68;;;15.80;43.70;;;;;;5126931;27;45238;-72
2023/10/16 03:35:44;;;;;;;1.15;0.88;;;15.70;43.70;;;;;;5127258;27;46590;-72
2023/10/16 03:38:11;;;;;;;1.25;0.80;;;15.70;43.70;;;;;;5127599;27;45382;-71
2023/10/16 03:40:38;;;;;;;1.40;0.75;;;15.70;43.70;;;;;;5127948;27;45389;-72
2023/10/16 03:43:05;;;;;;;1.65;0.80;;;15.70;43.80;;;;;;5128091;27;45340;-71
2023/10/16 03:45:32;;;;;;;0.80;0.80;;;15.70;43.80;;;;;;5130084;27;46632;-71
2023/10/16 03:48:00;;;;;;;2.35;0.80;;;15.70;43.80;;;;;;5131303;27;45217;-72
2023/10/16 03:50:34;;;;;;;1.95;1.10;;;15.70;43.80;;;;;;5131289;27;45240;-72
2023/10/16 03:53:03;;;;;;;1.20;0.90;;;15.60;44.40;;;;;;5131552;27;45437;-71
2023/10/16 03:55:32;;;;;;;1.13;0.85;;;15.60;43.70;;;;;;5131029;27;45665;-72
2023/10/16 03:57:58;;;;;;;0.80;0.80;;;15.60;43.70;;;;;;5131000;27;45269;-72
2023/10/16 04:00:43;;;;;;;1.23;0.85;;;15.60;43.80;;;;;;5131119;27;45455;-70
2023/10/16 04:03:10;;;;;;;0.70;0.70;;;15.60;43.80;;;;;;5131293;27;45365;-73
2023/10/16 04:05:45;;;;;;;1.75;0.90;;;15.60;43.90;;;;;;5130809;27;45477;-70
2023/10/16 04:08:14;;;;;;;0.80;0.80;;;15.50;43.80;;;;;;5130758;27;45393;-72
2023/10/16 04:10:46;;;;;;;2.13;1.08;;;15.50;43.80;;;;;;5131114;27;45241;-72
2023/10/16 04:13:13;;;;;;;1.67;0.93;;;15.50;43.80;;;;;;5131084;27;45424;-72
2023/10/16 04:15:59;;;;;;;1.10;0.90;;;15.50;43.80;;;;;;5130544;27;45548;-72
2023/10/16 04:18:28;;;;;;;1.02;0.93;;;15.50;43.80;;;;;;5130845;27;45284;-72
2023/10/16 04:21:09;;;;;;;0.63;0.63;;;15.50;43.90;;;;;;5130802;27;45290;-72
2023/10/16 04:23:37;;;;;;;0.93;0.85;;;15.50;43.90;;;;;;5131036;27;45280;-72
2023/10/16 04:26:29;;;;;;;1.23;0.85;;;15.50;44.50;;;;;;5130276;27;46576;-71
2023/10/16 04:31:45;;;;;;;0.90;0.80;;;15.40;43.90;;;;;;5130681;27;45275;-72
2023/10/16 04:34:24;;;;;;;0.88;0.85;;;15.40;43.90;;;;;;5130748;27;45375;-72
2023/10/16 04:36:53;;;;;;;1.17;0.90;;;15.40;44.00;;;;;;5130027;27;46812;-72
2023/10/16 04:45:00;;;;;;;0.75;0.73;;;15.40;43.90;;;;;;5127891;27;45338;-72
2023/10/16 04:47:28;;;;;;;0.80;0.80;;;15.30;43.90;;;;;;5130104;27;45421;-72
2023/10/16 04:50:07;;;;;;;0.88;0.77;;;15.30;44.00;;;;;;5130016;27;45411;-72
2023/10/16 04:55:52;;;;;;;1.42;0.95;;;15.30;44.00;;;;;;5127277;27;45317;-72
2023/10/16 04:58:27;;;;;;;1.00;0.90;;;15.30;44.00;;;;;;5129793;27;45473;-72
2023/10/16 05:00:56;;;;;;;1.35;0.90;;;15.30;44.00;;;;;;5130030;27;45487;-72
2023/10/16 05:03:23;;;;;;;1.48;1.10;;;15.30;44.00;;;;;;5130198;27;45254;-72
2023/10/16 05:06:06;;;;;;;1.60;0.70;;;15.20;43.90;;;;;;5130216;27;45240;-72
2023/10/16 05:08:38;;;;;;;0.82;0.80;;;15.20;44.00;;;;;;5129845;27;46978;-72
2023/10/16 05:11:27;;;;;;;1.23;0.95;;;15.20;44.00;;;;;;5130032;27;45484;-72
2023/10/16 05:13:56;;;;;;;0.95;0.88;;;15.20;44.00;;;;;;5130157;27;45310;-72
2023/10/16 05:16:31;;;;;;;1.10;1.00;;;15.20;44.00;;;;;;5129989;27;45357;-71
2023/10/16 05:19:17;;;;;;;1.95;0.93;;;15.20;44.00;;;;;;5129865;27;46964;-71
2023/10/16 05:22:02;;;;;;;1.10;0.90;;;15.20;44.00;;;;;;5129671;27;45413;-71
2023/10/16 06:14:12;;;;;;;1.63;1.27;;;15.00;44.30;;;;;;5126025;27;45740;-74
2023/10/16 06:16:41;;;;;;;2.15;1.17;;;14.90;44.30;;;;;;5128671;27;45264;-72
2023/10/16 06:19:14;;;;;;;1.30;1.10;;;14.90;45.00;;;;;;5128836;27;45275;-73
2023/10/16 06:21:46;;;;;;;1.63;1.15;;;14.90;44.30;;;;;;5128717;27;45361;-72
2023/10/16 06:26:55;;;;;;;1.95;0.98;;;14.90;44.40;;;;;;5126598;27;45419;-72
2023/10/16 06:29:24;;;;;;;0.82;0.73;;;14.90;44.40;;;;;;5128766;27;45318;-72
2023/10/16 06:31:58;;;;;;;1.52;0.93;;;14.90;44.50;;;;;;5128673;27;45527;-72
2023/10/16 06:34:25;;;;;;;1.17;0.80;;;14.90;44.40;;;;;;5128525;27;46641;-72
2023/10/16 06:36:52;;;;;;;3.35;1.10;;;14.90;44.50;;;;;;5128545;27;45392;-72
2023/10/16 06:39:29;;;;;;;1.08;0.90;;;14.90;44.50;;;;;;5128570;27;45346;-72
2023/10/16 06:41:56;;;;;;;1.40;1.00;;;14.90;44.50;;;;;;5128493;27;45473;-72
2023/10/16 06:44:28;;;;;;;1.23;0.90;;;14.80;44.50;;;;;;5128404;27;45353;-73
2023/10/16 06:46:58;;;;;;;1.13;1.10;;;14.80;44.50;;;;;;5128450;27;45261;-72
2023/10/16 06:49:27;;;;;;;1.58;0.95;;;14.80;44.50;;;;;;5128524;27;45280;-72
2023/10/16 06:51:56;;;;;;;1.65;0.90;;;14.80;44.50;;;;;;5128574;27;45481;-73
2023/10/16 06:54:25;;;;;;;1.33;1.13;;;14.80;44.40;;;;;;5128342;27;46810;-72
2023/10/16 06:56:52;;;;;;;1.23;0.90;;;14.90;44.40;;;;;;5128306;27;45295;-73
2023/10/16 06:59:21;;;;;;;1.30;1.20;;;14.80;44.50;;;;;;5128500;27;45330;-73
2023/10/16 07:01:50;;;;;;;1.85;1.20;;;14.80;44.50;;;;;;5121381;27;45512;-74
2023/10/16 07:04:20;;;;;;;2.03;1.50;;;14.80;44.60;;;;;;5121630;27;45319;-73
2023/10/16 07:06:48;;;;;;;1.88;1.20;;;14.80;44.70;;;;;;5128200;27;45251;-72
2023/10/16 07:09:16;;;;;;;1.17;0.93;;;14.80;44.80;;;;;;5126017;27;45805;-71
2023/10/16 07:11:43;;;;;;;1.70;1.20;;;14.80;44.90;;;;;;5127984;27;45364;-72
2023/10/16 07:14:17;;;;;;;2.75;1.30;;;14.70;45.00;;;;;;5127668;27;45476;-72
2023/10/16 07:16:44;;;;;;;2.55;1.23;;;14.70;45.70;;;;;;5127309;27;45351;-74
2023/10/16 07:19:16;;;;;;;2.30;1.25;;;14.70;45.30;;;;;;5121931;27;45504;-73
2023/10/16 07:21:48;;;;;;;4.32;1.38;;;14.70;45.30;;;;;;5107332;27;45376;-72
2023/10/16 07:24:15;;;;;;;1.60;1.25;;;14.70;45.10;;;;;;5107253;27;45616;-71
2023/10/16 07:26:44;;;;;;;2.28;1.40;;;14.70;45.30;;;;;;5121814;27;45495;-72
2023/10/16 07:29:11;;;;;;;2.22;1.35;;;14.70;45.30;;;;;;5127383;27;45169;-71
2023/10/16 07:31:38;;;;;;;1.40;1.30;;;14.70;45.40;;;;;;5121272;27;45426;-72
2023/10/16 07:34:05;;;;;;;2.35;1.45;;;14.70;45.50;;;;;;5127936;27;46281;-72
2023/10/16 07:36:32;;;;;;;2.85;1.30;;;14.80;45.40;;;;;;5128217;27;45401;-72
2023/10/16 07:39:02;;;;;;;2.38;1.10;;;14.70;45.30;;;;;;5128437;27;45404;-72
2023/10/16 07:41:29;;;;;;;1.25;1.08;;;14.70;45.40;;;;;;5128447;27;45568;-72
2023/10/16 07:43:57;;;;;;;2.20;1.48;;;14.70;45.40;;;;;;5128070;27;45460;-72
2023/10/16 07:46:30;;;;;;;1.73;0.98;;;14.80;45.30;;;;;;5127305;27;45474;-72
2023/10/16 07:49:01;;;;;;;2.78;1.38;;;14.70;45.30;;;;;;5126177;27;45494;-73
2023/10/16 07:51:28;;;;;;;3.15;1.30;;;14.70;45.40;;;;;;5112401;27;45296;-72
2023/10/16 07:53:56;;;;;;;2.22;1.10;;;14.70;45.40;;;;;;5127729;27;46734;-72
2023/10/16 07:56:28;;;;;;;1.25;1.20;;;14.70;45.40;;;;;;5127829;27;47146;-71
2023/10/16 07:59:06;;;;;;;2.42;1.40;;;14.70;45.40;;;;;;5127773;27;45336;-72
2023/10/16 08:01:36;;;;;;;1.67;1.20;;;14.70;45.50;;;;;;5127597;27;45315;-72
2023/10/16 08:04:06;;;;;;;3.42;1.40;;;14.70;45.50;;;;;;5121134;27;46198;-72
2023/10/16 08:06:37;;;;;;;4.25;1.02;;;14.70;45.40;;;;;;5127505;27;45597;-72
2023/10/16 08:11:57;;;;;;;1.30;1.20;;;14.80;45.50;;;;;;5124650;27;45327;-70
2023/10/16 08:14:25;;;;;;;2.33;1.52;;;14.80;45.50;;;;;;5123432;27;45437;-71
2023/10/16 08:16:58;;;;;;;2.45;1.38;;;14.80;45.40;;;;;;5127241;27;45367;-72
2023/10/16 08:19:31;;;;;;;1.25;1.15;;;14.80;45.40;;;;;;5127452;27;45284;-71
2023/10/16 08:22:02;;;;;;;1.95;1.50;;;14.80;45.50;;;;;;5127700;27;45454;-71
2023/10/16 08:24:31;;;;;;;1.45;1.33;;;14.80;45.40;;;;;;5126814;27;45360;-71
2023/10/16 08:27:10;;;;;;;3.33;1.50;;;14.80;45.40;;;;;;5126952;27;45519;-71
2023/10/16 08:29:53;;;;;;;2.88;1.23;;;14.80;45.40;;;;;;5126953;27;45400;-71
2023/10/16 08:35:09;;;;;;;1.95;1.38;;;14.90;45.40;;;;;;5107764;27;45273;-71
2023/10/16 08:37:40;;;;;;;2.00;1.25;;;14.90;45.40;;;;;;5109637;27;45401;-71
2023/10/16 08:40:18;;;;;;;2.42;1.48;;;14.90;45.40;;;;;;5127335;27;45383;-71
2023/10/16 08:42:47;;;;;;;2.72;1.67;;;14.90;45.60;;;;;;5128409;27;45623;-72
2023/10/16 08:45:15;;;;;;;5.18;1.75;;;15.00;46.20;;;;;;5128337;27;45601;-71
2023/10/16 08:47:42;;;;;;;2.67;1.23;;;15.10;46.20;;;;;;5128287;27;45749;-71
2023/10/16 08:50:17;;;;;;;1.33;1.10;;;15.10;46.40;;;;;;5119582;27;45331;-72
2023/10/16 08:52:50;;;;;;;2.85;1.30;;;15.20;46.50;;;;;;5128813;27;45485;-70
2023/10/16 08:55:17;;;;;;;1.90;1.40;;;15.30;46.60;;;;;;5128170;27;46738;-72
2023/10/16 08:57:44;;;;;;;5.50;1.63;;;15.40;46.30;;;;;;5127379;27;45345;-72
2023/10/16 09:00:19;;;;;;;6.47;2.75;;;15.50;46.30;;;;;;5128734;27;45373;-76
2023/10/16 09:02:47;;;;;;;3.78;2.42;;;15.50;46.60;;;;;;5128070;27;45454;-72
2023/10/16 09:05:16;;;;;;;7.75;3.22;;;15.60;46.30;;;;;;5129263;27;45277;-68
2023/10/16 09:07:43;;;;;;;8.85;2.90;;;15.60;46.50;;;;;;5129403;27;45478;-71
2023/10/16 09:10:10;;;;;;;8.07;3.13;;;15.70;46.60;;;;;;5129488;27;45370;-72
2023/10/16 09:12:44;;;;;;;10.05;3.80;;;15.70;46.60;;;;;;5115120;27;45474;-71
2023/10/16 09:15:15;;;;;;;11.25;3.05;;;15.80;46.50;;;;;;5114575;27;45483;-71
2023/10/16 09:17:41;;;;;;;9.88;3.33;;;15.80;47.00;;;;;;5120612;27;45311;-73
2023/10/16 09:20:13;;;;;;;13.18;3.03;;;15.90;46.50;;;;;;5128749;27;45442;-72
2023/10/16 09:22:45;;;;;;;8.98;2.47;;;16.00;46.40;;;;;;5128288;27;45558;-74
2023/10/16 09:25:15;;;;;;;6.35;2.10;;;16.00;46.10;;;;;;5128824;27;47002;-72
2023/10/16 09:27:42;;;;;;;5.32;2.28;;;16.10;45.80;;;;;;5129207;27;45320;-71
2023/10/16 09:30:14;;;;;;;3.17;2.10;;;16.10;45.50;;;;;;5126533;27;45490;-72
2023/10/16 09:32:42;;;;;;;3.13;1.63;;;16.10;45.30;;;;;;5127954;27;45487;-69
2023/10/16 09:35:12;;;;;;;6.47;2.47;;;16.10;45.40;;;;;;5125411;27;45539;-73
2023/10/16 09:37:39;;;;;;;3.03;2.23;;;16.20;45.90;;;;;;5128363;27;45614;-71
2023/10/16 09:40:18;;;;;;;6.10;2.03;;;16.20;46.00;;;;;;5129557;27;45329;-70
2023/10/16 09:42:55;;;;;;;2.70;1.90;;;16.20;46.10;;;;;;5127125;27;45495;-73
2023/10/16 09:45:23;;;;;;;5.32;2.13;;;16.30;46.00;;;;;;5128210;27;47068;-72
2023/10/16 09:47:52;;;;;;;6.05;2.10;;;16.40;46.30;;;;;;5128115;27;45471;-70
2023/10/16 09:50:19;;;;;;;2.20;1.45;;;16.40;46.00;;;;;;5128622;27;45367;-68
2023/10/16 09:52:47;;;;;;;4.22;2.00;;;16.50;46.20;;;;;;5127359;27;45484;-71
2023/10/16 09:55:14;;;;;;;4.30;1.70;;;16.60;46.20;;;;;;5120892;27;45647;-70
2023/10/16 09:57:46;;;;;;;7.40;1.70;;;16.70;46.30;;;;;;5115157;27;45435;-73
2023/10/16 10:00:28;;;;;;;2.63;1.58;;;16.70;45.60;;;;;;5124588;27;45325;-73
2023/10/16 10:03:02;;;;;;;4.32;1.60;;;16.70;45.30;;;;;;5124093;27;45523;-71
2023/10/16 10:05:34;;;;;;;5.80;1.85;;;16.80;45.30;;;;;;5125238;27;47879;-72
2023/10/16 10:08:05;;;;;;;4.55;1.77;;;16.90;45.20;;;;;;5127419;27;45311;-71
2023/10/16 10:11:05;;;;;;;4.53;1.90;;;16.90;45.00;;;;;;5128446;27;45445;-73
2023/10/16 10:13:34;;;;;;;6.70;1.95;;;17.00;45.00;;;;;;5127411;27;45488;-73
2023/10/16 10:16:01;;;;;;;4.65;1.60;;;17.00;44.90;;;;;;5127402;27;46428;-73
2023/10/16 10:18:33;;;;;;;5.57;2.08;;;17.10;44.90;;;;;;5129179;27;45345;-70
2023/10/16 10:21:02;;;;;;;4.47;1.90;;;17.10;45.00;;;;;;5125123;27;45482;-71
2023/10/16 10:23:32;;;;;;;3.08;1.60;;;17.20;44.80;;;;;;5128554;27;45551;-70
2023/10/16 10:26:02;;;;;;;6.80;1.40;;;17.30;44.40;;;;;;5127862;27;45414;-72
2023/10/16 10:28:32;;;;;;;7.93;1.88;;;17.40;44.30;;;;;;5120656;27;45254;-73
2023/10/16 10:31:02;;;;;;;6.15;1.85;;;17.50;43.80;;;;;;5125734;27;45491;-71
2023/10/16 10:33:51;;;;;;;1.90;1.55;;;17.60;43.80;;;;;;5126113;27;45352;-71
2023/10/16 10:36:34;;;;;;;1.75;1.35;;;17.60;43.60;;;;;;5113777;27;45325;-71
2023/10/16 10:39:44;;;;;;;3.22;1.30;;;17.70;43.40;;;;;;5127931;27;45331;-71
2023/10/16 10:45:17;;;;;;;3.50;1.40;;;17.80;43.30;;;;;;5117536;27;45516;-71
2023/10/16 10:47:44;;;;;;;3.25;1.60;;;17.80;43.10;;;;;;5126760;27;45481;-72
2023/10/16 10:50:15;;;;;;;2.75;1.65;;;17.90;43.10;;;;;;5122333;27;45277;-71
2023/10/16 10:52:43;;;;;;;1.77;1.23;;;18.00;43.00;;;;;;5114013;27;45383;-72
2023/10/16 10:55:18;;;;;;;2.80;1.35;;;18.00;42.90;;;;;;5123506;27;45248;-71
2023/10/16 10:57:47;;;;;;;2.45;1.40;;;18.00;42.80;;;;;;5128074;27;45479;-71
2023/10/16 11:00:43;;;;;;;2.83;1.30;;;18.10;42.60;;;;;;5119435;27;45466;-72
2023/10/16 11:03:22;;;;;;;3.35;1.60;;;18.20;42.70;;;;;;5113015;27;45316;-70
2023/10/16 11:05:51;;;;;;;1.63;1.52;;;18.20;42.50;;;;;;5124349;27;45643;-71
2023/10/16 11:08:25;;;;;;;4.78;1.52;;;18.30;42.40;;;;;;5126481;27;46803;-71
2023/10/16 11:10:52;;;;;;;1.33;1.20;;;18.30;42.30;;;;;;5111991;27;45357;-72
2023/10/16 11:13:21;;;;;;;2.25;1.35;;;18.40;42.20;;;;;;5126489;27;45447;-72
2023/10/16 11:15:52;;;;;;;1.77;1.30;;;18.50;42.20;;;;;;5122185;27;45924;-72
2023/10/16 11:18:19;;;;;;;5.05;1.27;;;18.50;42.20;;;;;;5115489;27;45557;-72
2023/10/16 11:20:48;;;;;;;2.83;1.42;;;18.60;42.50;;;;;;5125004;27;45300;-72
2023/10/16 11:23:17;;;;;;;4.05;1.63;;;18.70;42.50;;;;;;5120811;27;45488;-72
2023/10/16 11:25:45;;;;;;;8.68;1.63;;;18.70;42.10;;;;;;5125330;27;45748;-73
2023/10/16 11:28:17;;;;;;;6.65;1.40;;;18.80;41.80;;;;;;5107813;27;46475;-72
2023/10/16 11:30:46;;;;;;;2.83;1.30;;;18.90;41.70;;;;;;5107315;27;45342;-72
2023/10/16 11:33:13;;;;;;;1.60;1.00;;;19.00;41.60;;;;;;5107137;27;45915;-72
2023/10/16 11:35:46;;;;;;;1.40;1.30;;;19.00;42.10;;;;;;5107396;27;45295;-72
2023/10/16 11:38:19;;;;;;;2.83;1.50;;;19.10;41.90;;;;;;5106931;27;45528;-72
2023/10/16 11:40:50;;;;;;;2.97;1.30;;;19.10;41.10;;;;;;5107240;27;45403;-73
2023/10/16 11:43:19;;;;;;;1.38;1.13;;;19.20;41.00;;;;;;5107012;27;45402;-72
2023/10/16 11:45:53;;;;;;;4.25;1.40;;;19.20;40.90;;;;;;5118932;27;45674;-73
2023/10/16 11:48:28;;;;;;;4.88;1.63;;;19.30;41.10;;;;;;5127271;27;46787;-72
2023/10/16 11:51:05;;;;;;;1.70;0.98;;;19.30;40.90;;;;;;5127584;27;45394;-72
2023/10/16 11:53:34;;;;;;;2.85;1.30;;;19.40;40.80;;;;;;5127176;27;45380;-73
2023/10/16 11:56:02;;;;;;;1.63;1.10;;;19.40;40.60;;;;;;5127772;27;45252;-73
2023/10/16 11:58:31;;;;;;;1.48;1.10;;;19.50;40.60;;;;;;5125839;27;45408;-72
2023/10/16 12:01:08;;;;;;;3.97;1.23;;;19.50;40.50;;;;;;5126545;27;45373;-72
2023/10/16 12:03:37;;;;;;;4.63;1.20;;;19.60;40.50;;;;;;5126247;27;45514;-72
2023/10/16 12:06:08;;;;;;;3.72;1.30;;;19.60;40.30;;;;;;5128678;27;45579;-73
2023/10/16 12:08:35;;;;;;;2.22;1.20;;;19.70;40.40;;;;;;5129814;27;49012;-74
2023/10/16 12:11:04;;;;;;;5.22;1.08;;;19.70;40.70;;;;;;5130704;27;45234;-72
2023/10/16 12:13:31;;;;;;;3.92;1.10;;;19.80;40.60;;;;;;5129960;27;45302;-73
2023/10/16 12:15:58;;;;;;;1.60;1.10;;;19.80;40.90;;;;;;5130012;27;45422;-71
2023/10/16 12:18:28;;;;;;;1.25;1.00;;;19.80;40.90;;;;;;5119369;27;45247;-75
2023/10/16 12:20:59;;;;;;;1.17;1.10;;;19.80;40.70;;;;;;5110479;27;45339;-73
2023/10/16 12:23:26;;;;;;;4.20;1.17;;;19.90;40.80;;;;;;5109499;27;44716;-72
2023/10/16 12:25:53;;;;;;;2.20;1.20;;;19.90;40.60;;;;;;5114474;27;45315;-72
2023/10/16 12:28:22;;;;;;;3.05;1.00;;;20.00;40.70;;;;;;5124833;27;46740;-71
2023/10/16 12:30:49;;;;;;;4.18;1.30;;;20.00;40.70;;;;;;5117642;27;45377;-73
2023/10/16 12:33:16;;;;;;;2.97;1.02;;;20.00;41.10;;;;;;5130322;27;45539;-72
2023/10/16 12:35:43;;;;;;;3.00;1.30;;;20.00;40.70;;;;;;5130967;27;45398;-72
2023/10/16 12:38:10;;;;;;;4.13;1.10;;;20.10;40.80;;;;;;5130017;27;45421;-73
2023/10/16 12:40:38;;;;;;;1.73;1.10;;;20.20;40.70;;;;;;5129970;27;45531;-73
2023/10/16 12:43:06;;;;;;;3.35;1.20;;;20.20;40.50;;;;;;5130379;27;45407;-72
2023/10/16 12:45:34;;;;;;;1.13;1.00;;;20.30;40.50;;;;;;5129355;27;45247;-72
2023/10/16 12:48:01;;;;;;;2.60;0.90;;;20.30;40.50;;;;;;5129763;27;45448;-73
2023/10/16 12:50:29;;;;;;;2.42;1.13;;;20.40;40.40;;;;;;5123744;27;45429;-73
2023/10/16 12:52:57;;;;;;;1.48;1.23;;;20.40;40.30;;;;;;5109701;27;45298;-73
2023/10/16 12:55:23;;;;;;;1.92;0.77;;;20.40;40.20;;;;;;5113690;27;45302;-73
2023/10/16 12:57:50;;;;;;;2.33;0.90;;;20.50;40.10;;;;;;5129901;27;46399;-73
2023/10/16 13:00:19;;;;;;;0.95;0.80;;;20.50;40.70;;;;;;5129967;27;45439;-72
2023/10/16 13:02:48;;;;;;;1.45;1.08;;;20.60;40.10;;;;;;5129790;27;45241;-72
2023/10/16 13:05:15;;;;;;;1.25;0.73;;;20.60;39.90;;;;;;5129479;27;45502;-72
2023/10/16 13:07:43;;;;;;;2.75;0.90;;;20.60;39.80;;;;;;5129388;27;46664;-72
2023/10/16 13:10:14;;;;;;;1.73;0.90;;;20.70;39.80;;;;;;5128908;27;45380;-73
2023/10/16 13:12:41;;;;;;;1.48;0.90;;;20.70;39.80;;;;;;5119991;27;45369;-73
2023/10/16 13:15:09;;;;;;;4.50;1.00;;;20.80;39.80;;;;;;5120516;27;45575;-73
2023/10/16 13:17:37;;;;;;;1.05;0.75;;;20.80;39.60;;;;;;5129295;27;46949;-74
2023/10/16 13:20:13;;;;;;;1.75;0.80;;;20.80;39.90;;;;;;5116136;27;45370;-73
2023/10/16 13:22:42;;;;;;;3.67;0.95;;;20.80;39.90;;;;;;5125396;27;46312;-74
2023/10/16 13:25:12;;;;;;;3.53;1.23;;;20.90;40.00;;;;;;5112959;27;45473;-74
2023/10/16 13:27:39;;;;;;;4.07;1.15;;;20.90;39.70;;;;;;5108496;27;46399;-73
2023/10/16 13:30:11;;;;;;;6.25;1.00;;;20.90;39.60;;;;;;5111861;27;45491;-72
2023/10/16 13:32:40;;;;;;;7.28;1.10;;;20.90;39.40;;;;;;5110415;27;45552;-73
2023/10/16 13:35:12;;;;;;;0.95;0.73;;;21.00;39.40;;;;;;5111538;27;45502;-73
2023/10/16 13:37:42;;;;;;;3.08;0.68;;;20.90;39.20;;;;;;5113947;27;46986;-73
2023/10/16 13:40:19;;;;;;;0.85;0.63;;;21.00;39.00;;;;;;5110847;27;45526;-73
2023/10/16 13:42:47;;;;;;;1.45;0.90;;;21.00;39.10;;;;;;5111413;27;45324;-72
2023/10/16 13:45:14;;;;;;;2.40;1.00;;;21.00;38.90;;;;;;5113923;27;45386;-74
2023/10/16 13:47:43;;;;;;;0.85;0.80;;;21.00;38.90;;;;;;5112585;27;45631;-73
2023/10/16 13:50:13;;;;;;;2.42;0.90;;;21.00;38.80;;;;;;5111660;27;45411;-73
2023/10/16 13:52:42;;;;;;;5.93;0.88;;;21.10;38.80;;;;;;5112122;27;45411;-73
2023/10/16 13:55:12;;;;;;;0.68;0.68;;;21.10;38.80;;;;;;5112232;27;45428;-74
2023/10/16 13:57:42;;;;;;;0.90;0.80;;;21.10;38.70;;;;;;5111171;27;46349;-74
2023/10/16 14:00:28;;;;;;;3.70;0.90;;;21.00;38.70;;;;;;5109589;27;45470;-73
2023/10/16 14:02:56;;;;;;;2.35;0.80;;;21.10;38.70;;;;;;5111117;27;45484;-73
2023/10/16 14:05:28;;;;;;;0.82;0.70;;;21.10;38.60;;;;;;5113343;27;45447;-73
2023/10/16 14:07:55;;;;;;;1.55;0.80;;;21.10;38.60;;;;;;5111930;27;45436;-73
2023/10/16 14:10:23;;;;;;;2.45;0.70;;;21.10;38.60;;;;;;5112782;27;45442;-73
2023/10/16 14:12:58;;;;;;;1.23;0.85;;;21.10;38.60;;;;;;5113663;27;45284;-73
2023/10/16 14:15:26;;;;;;;3.72;0.75;;;21.00;38.80;;;;;;5115031;27;45265;-72
2023/10/16 14:17:57;;;;;;;1.17;0.63;;;20.90;38.00;;;;;;5111416;27;45688;-72